createdAt,value
2017-09-11T00:00:43.247Z,88.63
2017-09-11T00:01:43.234Z,88.35
2017-09-11T00:02:43.225Z,87.40
2017-09-11T00:03:43.210Z,87.68
2017-09-11T00:04:43.194Z,87.21
2017-09-11T00:05:43.181Z,87.02
2017-09-11T00:06:43.169Z,87.40
2017-09-11T00:07:43.155Z,86.83
2017-09-11T00:08:43.140Z,86.45
2017-09-11T00:09:43.127Z,85.88
2017-09-11T00:10:43.117Z,85.69
2017-09-11T00:11:43.104Z,85.69
2017-09-11T00:12:43.088Z,86.55
2017-09-11T00:13:43.074Z,87.40
2017-09-11T00:14:43.068Z,88.06
2017-09-11T00:15:43.049Z,88.54
2017-09-11T00:16:43.043Z,88.49
2017-09-11T00:17:43.022Z,88.96
2017-09-11T00:18:43.008Z,89.63
2017-09-11T00:19:42.996Z,89.44
2017-09-11T00:20:42.984Z,90.20
2017-09-11T00:21:42.969Z,90.67
2017-09-11T00:22:42.960Z,90.86
2017-09-11T00:23:42.944Z,90.29
2017-09-11T00:24:42.929Z,89.91
2017-09-11T00:25:42.918Z,89.91
2017-09-11T00:26:42.904Z,89.82
2017-09-11T00:27:42.890Z,90.10
2017-09-11T00:28:42.877Z,89.53
2017-09-11T00:29:42.862Z,89.72
2017-09-11T00:30:42.850Z,89.53
2017-09-11T00:31:42.837Z,89.20
2017-09-11T00:32:42.826Z,88.59
2017-09-11T00:33:42.809Z,88.59
2017-09-11T00:34:42.800Z,88.73
2017-09-11T00:35:42.784Z,88.16
2017-09-11T00:36:42.769Z,87.77
2017-09-11T00:37:42.758Z,87.59
2017-09-11T00:38:42.747Z,87.59
2017-09-11T00:39:42.730Z,86.93
2017-09-11T00:40:42.717Z,86.74
2017-09-11T00:41:42.703Z,86.55
2017-09-11T00:42:42.692Z,86.35
2017-09-11T00:43:42.683Z,86.07
2017-09-11T00:44:42.662Z,84.94
2017-09-11T00:45:42.649Z,85.31
2017-09-11T00:46:42.638Z,84.74
2017-09-11T00:47:42.624Z,84.27
2017-09-11T00:48:42.612Z,84.46
2017-09-11T00:49:42.597Z,84.31
2017-09-11T00:50:42.587Z,83.89
2017-09-11T00:51:42.574Z,83.46
2017-09-11T00:52:42.557Z,82.70
2017-09-11T00:53:42.544Z,83.08
2017-09-11T00:54:42.532Z,82.42
2017-09-11T00:55:42.524Z,82.42
2017-09-11T00:56:42.506Z,82.60
2017-09-11T00:57:42.494Z,83.89
2017-09-11T00:58:42.479Z,84.03
2017-09-11T00:59:42.469Z,83.84
2017-09-11T01:00:42.451Z,82.98
2017-09-11T01:01:42.440Z,82.89
2017-09-11T01:02:42.428Z,82.51
2017-09-11T01:03:42.413Z,82.13
2017-09-11T01:04:42.402Z,82.13
2017-09-11T01:05:42.388Z,81.94
2017-09-11T01:06:42.373Z,82.42
2017-09-11T01:07:42.362Z,82.23
2017-09-11T01:08:42.348Z,82.13
2017-09-11T01:09:42.336Z,82.32
2017-09-11T01:10:42.322Z,82.42
2017-09-11T01:11:42.308Z,81.09
2017-09-11T01:12:42.293Z,81.37
2017-09-11T01:13:42.280Z,81.47
2017-09-11T01:14:42.270Z,81.85
2017-09-11T01:15:42.257Z,82.42
2017-09-11T01:16:42.242Z,83.13
2017-09-11T01:17:42.230Z,85.13
2017-09-11T01:18:42.218Z,86.45
2017-09-11T01:19:42.202Z,87.40
2017-09-11T01:20:42.192Z,87.30
2017-09-11T01:21:42.178Z,86.55
2017-09-11T01:22:42.164Z,86.74
2017-09-11T01:23:42.152Z,86.07
2017-09-11T01:24:42.136Z,85.22
2017-09-11T01:25:42.123Z,84.94
2017-09-11T01:26:42.110Z,84.46
2017-09-11T01:27:42.098Z,84.46
2017-09-11T01:28:42.082Z,84.17
2017-09-11T01:29:42.068Z,84.17
2017-09-11T01:30:42.057Z,84.36
2017-09-11T01:31:42.041Z,84.17
2017-09-11T01:32:42.038Z,84.27
2017-09-11T01:33:42.017Z,84.17
2017-09-11T01:34:42.002Z,84.65
2017-09-11T01:35:41.991Z,83.94
2017-09-11T01:36:41.975Z,83.61
2017-09-11T01:37:41.964Z,84.17
2017-09-11T01:38:41.950Z,85.31
2017-09-11T01:39:41.938Z,84.69
2017-09-11T01:40:41.922Z,83.74
2017-09-11T01:41:41.911Z,83.36
2017-09-11T01:42:41.897Z,83.08
2017-09-11T01:43:41.885Z,83.36
2017-09-11T01:44:41.875Z,83.65
2017-09-11T01:45:41.860Z,83.61
2017-09-11T01:46:41.844Z,83.89
2017-09-11T01:47:41.831Z,84.17
2017-09-11T01:48:41.824Z,83.94
2017-09-11T01:49:41.805Z,83.51
2017-09-11T01:50:41.794Z,83.61
2017-09-11T01:51:41.780Z,84.65
2017-09-11T01:52:41.765Z,84.27
2017-09-11T01:53:41.753Z,84.31
2017-09-11T01:54:41.741Z,84.12
2017-09-11T01:55:41.728Z,83.46
2017-09-11T01:56:41.712Z,83.27
2017-09-11T01:57:41.698Z,83.55
2017-09-11T01:58:41.689Z,83.08
2017-09-11T01:59:41.676Z,82.13
2017-09-11T02:00:41.661Z,82.13
2017-09-11T02:01:41.645Z,81.56
2017-09-11T02:02:41.670Z,80.71
2017-09-11T02:03:41.622Z,80.99
2017-09-11T02:04:41.605Z,80.71
2017-09-11T02:05:41.593Z,80.99
2017-09-11T02:06:41.580Z,80.80
2017-09-11T02:07:41.567Z,81.47
2017-09-11T02:08:41.556Z,80.80
2017-09-11T02:09:41.543Z,81.09
2017-09-11T02:10:41.530Z,82.23
2017-09-11T02:11:41.518Z,83.13
2017-09-11T02:12:41.502Z,83.61
2017-09-11T02:13:41.490Z,83.98
2017-09-11T02:14:41.478Z,84.65
2017-09-11T02:15:41.465Z,85.03
2017-09-11T02:16:41.450Z,85.31
2017-09-11T02:17:41.440Z,85.13
2017-09-11T02:18:41.424Z,84.55
2017-09-11T02:19:41.413Z,84.84
2017-09-11T02:20:41.398Z,84.65
2017-09-11T02:21:41.389Z,85.31
2017-09-11T02:22:41.375Z,84.65
2017-09-11T02:23:41.360Z,85.03
2017-09-11T02:24:41.346Z,85.78
2017-09-11T02:25:41.334Z,87.40
2017-09-11T02:26:41.323Z,88.54
2017-09-11T02:27:41.309Z,89.53
2017-09-11T02:28:41.296Z,91.71
2017-09-11T02:29:41.282Z,92.47
2017-09-11T02:30:41.271Z,92.47
2017-09-11T02:31:41.257Z,93.32
2017-09-11T02:32:41.242Z,93.23
2017-09-11T02:33:41.232Z,93.70
2017-09-11T02:34:41.215Z,93.70
2017-09-11T02:35:41.204Z,93.99
2017-09-11T02:36:41.187Z,92.85
2017-09-11T02:37:41.174Z,93.23
2017-09-11T02:38:41.160Z,92.47
2017-09-11T02:39:41.149Z,92.57
2017-09-11T02:40:41.134Z,91.90
2017-09-11T02:41:41.121Z,91.19
2017-09-11T02:42:41.109Z,89.96
2017-09-11T02:43:41.103Z,89.39
2017-09-11T02:44:41.080Z,88.35
2017-09-11T02:45:41.069Z,88.25
2017-09-11T02:46:41.056Z,87.49
2017-09-11T02:47:41.041Z,88.16
2017-09-11T02:48:41.029Z,87.97
2017-09-11T02:49:41.016Z,87.77
2017-09-11T02:50:40.999Z,88.06
2017-09-11T02:51:40.987Z,88.44
2017-09-11T02:52:40.976Z,89.58
2017-09-11T02:53:40.966Z,89.86
2017-09-11T02:54:40.947Z,89.67
2017-09-11T02:55:40.937Z,90.05
2017-09-11T02:56:40.923Z,89.67
2017-09-11T02:57:40.910Z,89.77
2017-09-11T02:58:40.895Z,89.77
2017-09-11T02:59:40.884Z,89.96
2017-09-11T03:00:40.870Z,89.77
2017-09-11T03:01:40.856Z,91.05
2017-09-11T03:02:40.846Z,91.05
2017-09-11T03:03:40.829Z,92.28
2017-09-11T03:04:40.816Z,92.28
2017-09-11T03:05:40.806Z,91.00
2017-09-11T03:06:40.791Z,90.15
2017-09-11T03:07:40.807Z,89.77
2017-09-11T03:08:40.764Z,89.11
2017-09-11T03:09:40.757Z,89.48
2017-09-11T03:10:40.740Z,89.96
2017-09-11T03:11:40.728Z,90.58
2017-09-11T03:12:40.712Z,90.53
2017-09-11T03:13:40.699Z,91.24
2017-09-11T03:14:40.687Z,90.77
2017-09-11T03:15:40.678Z,90.43
2017-09-11T03:16:40.661Z,90.62
2017-09-11T03:17:40.649Z,89.20
2017-09-11T03:18:40.634Z,88.92
2017-09-11T03:19:40.624Z,90.29
2017-09-11T03:20:40.607Z,89.91
2017-09-11T03:21:40.597Z,90.58
2017-09-11T03:22:40.583Z,90.58
2017-09-11T03:23:40.568Z,90.10
2017-09-11T03:24:40.553Z,89.44
2017-09-11T03:25:40.544Z,88.68
2017-09-11T03:26:40.530Z,88.68
2017-09-11T03:27:40.529Z,88.68
2017-09-11T03:28:40.502Z,87.97
2017-09-11T03:29:40.489Z,87.68
2017-09-11T03:30:40.475Z,87.40
2017-09-11T03:31:40.468Z,87.97
2017-09-11T03:32:40.449Z,88.54
2017-09-11T03:33:40.436Z,88.59
2017-09-11T03:34:40.421Z,88.06
2017-09-11T03:35:40.408Z,87.59
2017-09-11T03:36:40.396Z,86.93
2017-09-11T03:37:40.388Z,86.07
2017-09-11T03:38:40.371Z,85.78
2017-09-11T03:39:40.358Z,85.03
2017-09-11T03:40:40.343Z,85.03
2017-09-11T03:41:40.336Z,85.13
2017-09-11T03:42:40.318Z,85.31
2017-09-11T03:43:40.302Z,85.78
2017-09-11T03:44:40.290Z,85.07
2017-09-11T03:45:40.274Z,85.31
2017-09-11T03:46:40.263Z,84.94
2017-09-11T03:47:40.248Z,84.84
2017-09-11T03:48:40.277Z,85.78
2017-09-11T03:49:40.221Z,86.35
2017-09-11T03:50:40.209Z,87.21
2017-09-11T03:51:40.201Z,86.74
2017-09-11T03:52:40.197Z,87.30
2017-09-11T03:53:40.170Z,87.59
2017-09-11T03:54:40.159Z,88.16
2017-09-11T03:55:40.146Z,87.59
2017-09-11T03:56:40.131Z,87.59
2017-09-11T03:57:40.120Z,87.54
2017-09-11T03:58:40.109Z,88.68
2017-09-11T03:59:40.095Z,90.67
2017-09-11T04:00:40.079Z,91.90
2017-09-11T04:01:40.065Z,92.47
2017-09-11T04:02:40.055Z,93.32
2017-09-11T04:03:40.041Z,92.76
2017-09-11T04:04:40.025Z,92.66
2017-09-11T04:05:40.014Z,91.52
2017-09-11T04:06:40.000Z,90.58
2017-09-11T04:07:39.986Z,90.20
2017-09-11T04:08:39.973Z,88.87
2017-09-11T04:09:39.958Z,89.72
2017-09-11T04:10:39.952Z,90.39
2017-09-11T04:11:39.930Z,91.09
2017-09-11T04:12:39.919Z,90.62
2017-09-11T04:13:39.902Z,90.72
2017-09-11T04:14:39.891Z,90.81
2017-09-11T04:15:39.877Z,91.09
2017-09-11T04:16:39.863Z,91.76
2017-09-11T04:17:39.849Z,92.71
2017-09-11T04:18:39.833Z,93.84
2017-09-11T04:19:39.822Z,93.37
2017-09-11T04:20:39.807Z,94.37
2017-09-11T04:21:39.797Z,94.93
2017-09-11T04:22:39.781Z,95.69
2017-09-11T04:23:39.764Z,94.74
2017-09-11T04:24:39.749Z,94.79
2017-09-11T04:25:39.736Z,94.51
2017-09-11T04:26:39.724Z,94.70
2017-09-11T04:27:39.719Z,94.60
2017-09-11T04:28:39.694Z,94.56
2017-09-11T04:29:39.680Z,95.03
2017-09-11T04:30:39.664Z,95.41
2017-09-11T04:31:39.651Z,95.50
2017-09-11T04:32:39.637Z,95.12
2017-09-11T04:33:39.621Z,95.60
2017-09-11T04:34:39.608Z,95.69
2017-09-11T04:35:39.595Z,95.12
2017-09-11T04:36:39.578Z,94.46
2017-09-11T04:37:39.565Z,94.42
2017-09-11T04:38:39.549Z,94.32
2017-09-11T04:39:39.537Z,93.75
2017-09-11T04:40:39.520Z,94.65
2017-09-11T04:41:39.509Z,94.56
2017-09-11T04:42:39.493Z,94.08
2017-09-11T04:43:39.482Z,94.27
2017-09-11T04:44:39.466Z,94.56
2017-09-11T04:45:39.451Z,94.37
2017-09-11T04:46:39.437Z,94.27
2017-09-11T04:47:39.423Z,94.08
2017-09-11T04:48:39.405Z,93.56
2017-09-11T04:49:39.392Z,92.33
2017-09-11T04:50:39.385Z,92.61
2017-09-11T04:51:39.367Z,92.52
2017-09-11T04:52:39.348Z,92.52
2017-09-11T04:53:39.337Z,92.52
2017-09-11T04:54:39.319Z,91.57
2017-09-11T04:55:39.306Z,91.66
2017-09-11T04:56:39.294Z,91.85
2017-09-11T04:57:39.278Z,92.42
2017-09-11T04:58:39.262Z,92.66
2017-09-11T04:59:39.251Z,92.85
2017-09-11T05:00:39.236Z,92.76
2017-09-11T05:01:39.219Z,92.94
2017-09-11T05:02:39.209Z,93.89
2017-09-11T05:03:39.192Z,93.61
2017-09-11T05:04:39.175Z,93.80
2017-09-11T05:05:39.166Z,93.61
2017-09-11T05:06:39.148Z,93.42
2017-09-11T05:07:39.136Z,94.18
2017-09-11T05:08:39.152Z,93.51
2017-09-11T05:09:39.116Z,93.56
2017-09-11T05:10:39.091Z,93.65
2017-09-11T05:11:39.075Z,93.56
2017-09-11T05:12:39.060Z,93.94
2017-09-11T05:13:39.045Z,93.46
2017-09-11T05:14:39.033Z,93.56
2017-09-11T05:15:39.017Z,93.65
2017-09-11T05:16:39.004Z,93.46
2017-09-11T05:17:38.988Z,93.56
2017-09-11T05:18:38.976Z,93.56
2017-09-11T05:19:38.961Z,93.08
2017-09-11T05:20:38.947Z,92.80
2017-09-11T05:21:38.933Z,93.27
2017-09-11T05:22:38.919Z,92.23
2017-09-11T05:23:38.903Z,92.04
2017-09-11T05:24:38.887Z,91.95
2017-09-11T05:25:38.875Z,91.47
2017-09-11T05:26:38.862Z,91.95
2017-09-11T05:27:38.848Z,92.42
2017-09-11T05:28:38.831Z,92.71
2017-09-11T05:29:38.814Z,91.66
2017-09-11T05:30:38.801Z,91.85
2017-09-11T05:31:38.790Z,91.76
2017-09-11T05:32:38.771Z,91.85
2017-09-11T05:33:38.760Z,92.04
2017-09-11T05:34:38.746Z,92.42
2017-09-11T05:35:38.732Z,92.04
2017-09-11T05:36:38.714Z,92.33
2017-09-11T05:37:38.701Z,92.99
2017-09-11T05:38:38.689Z,92.61
2017-09-11T05:39:38.673Z,92.71
2017-09-11T05:40:38.657Z,93.18
2017-09-11T05:41:38.643Z,92.80
2017-09-11T05:42:38.630Z,92.42
2017-09-11T05:43:38.619Z,93.27
2017-09-11T05:44:38.602Z,92.14
2017-09-11T05:45:38.587Z,91.95
2017-09-11T05:46:38.575Z,91.95
2017-09-11T05:47:38.561Z,91.66
2017-09-11T05:48:38.544Z,92.33
2017-09-11T05:49:38.533Z,91.47
2017-09-11T05:50:38.519Z,91.00
2017-09-11T05:51:38.503Z,91.85
2017-09-11T05:52:38.488Z,91.76
2017-09-11T05:53:38.473Z,91.47
2017-09-11T05:54:38.459Z,91.95
2017-09-11T05:55:38.452Z,92.33
2017-09-11T05:56:38.433Z,92.42
2017-09-11T05:57:38.416Z,92.42
2017-09-11T05:58:38.408Z,91.95
2017-09-11T05:59:38.391Z,91.76
2017-09-11T06:00:38.373Z,91.76
2017-09-11T06:01:38.363Z,91.47
2017-09-11T06:02:38.349Z,92.23
2017-09-11T06:03:38.332Z,91.85
2017-09-11T06:04:38.320Z,92.04
2017-09-11T06:05:38.305Z,92.42
2017-09-11T06:06:38.291Z,93.08
2017-09-11T06:07:38.281Z,92.99
2017-09-11T06:08:38.261Z,93.27
2017-09-11T06:09:38.248Z,94.13
2017-09-11T06:10:38.234Z,92.99
2017-09-11T06:11:38.217Z,92.04
2017-09-11T06:12:38.205Z,91.47
2017-09-11T06:13:38.192Z,89.72
2017-09-11T06:14:38.176Z,90.81
2017-09-11T06:15:38.165Z,89.72
2017-09-11T06:16:38.150Z,89.72
2017-09-11T06:17:38.138Z,88.29
2017-09-11T06:18:38.119Z,88.39
2017-09-11T06:19:38.107Z,90.43
2017-09-11T06:20:38.092Z,91.05
2017-09-11T06:21:38.078Z,90.67
2017-09-11T06:22:38.066Z,89.53
2017-09-11T06:23:38.051Z,90.10
2017-09-11T06:24:38.039Z,90.29
2017-09-11T06:25:38.026Z,90.19
2017-09-11T06:26:38.010Z,87.87
2017-09-11T06:27:37.997Z,85.87
2017-09-11T06:28:37.985Z,85.87
2017-09-11T06:29:37.972Z,87.39
2017-09-11T06:30:37.957Z,87.11
2017-09-11T06:31:37.942Z,85.25
2017-09-11T06:32:37.931Z,83.64
2017-09-11T06:33:37.918Z,81.49
2017-09-11T06:34:37.903Z,80.74
2017-09-11T06:35:37.893Z,80.79
2017-09-11T06:36:37.877Z,82.65
2017-09-11T06:37:37.873Z,84.36
2017-09-11T06:38:37.852Z,84.74
2017-09-11T06:39:37.841Z,83.26
2017-09-11T06:40:37.828Z,82.31
2017-09-11T06:41:37.814Z,82.50
2017-09-11T06:42:37.803Z,82.55
2017-09-11T06:43:37.789Z,83.69
2017-09-11T06:44:37.780Z,85.11
2017-09-11T06:45:37.765Z,84.26
2017-09-11T06:46:37.751Z,83.36
2017-09-11T06:47:37.741Z,82.31
2017-09-11T06:48:37.724Z,81.26
2017-09-11T06:49:37.713Z,82.31
2017-09-11T06:50:37.703Z,82.55
2017-09-11T06:51:37.687Z,83.69
2017-09-11T06:52:37.682Z,84.74
2017-09-11T06:53:37.663Z,85.68
2017-09-11T06:54:37.653Z,86.30
2017-09-11T06:55:37.641Z,85.68
2017-09-11T06:56:37.628Z,86.07
2017-09-11T06:57:37.614Z,86.40
2017-09-11T06:58:37.618Z,85.68
2017-09-11T06:59:37.590Z,84.74
2017-09-11T07:00:37.574Z,84.92
2017-09-11T07:01:37.565Z,85.21
2017-09-11T07:02:37.550Z,86.35
2017-09-11T07:03:37.540Z,86.02
2017-09-11T07:04:37.527Z,86.40
2017-09-11T07:05:37.514Z,86.30
2017-09-11T07:06:37.501Z,86.21
2017-09-11T07:07:37.489Z,86.30
2017-09-11T07:08:37.474Z,86.11
2017-09-11T07:09:37.463Z,87.54
2017-09-11T07:10:37.450Z,87.73
2017-09-11T07:11:37.437Z,87.54
2017-09-11T07:12:37.421Z,87.82
2017-09-11T07:13:37.408Z,87.92
2017-09-11T07:14:37.397Z,87.82
2017-09-11T07:15:37.386Z,88.01
2017-09-11T07:16:37.371Z,87.92
2017-09-11T07:17:37.357Z,87.45
2017-09-11T07:18:37.346Z,87.25
2017-09-11T07:19:37.332Z,86.35
2017-09-11T07:20:37.317Z,85.21
2017-09-11T07:21:37.339Z,85.87
2017-09-11T07:22:37.289Z,85.74
2017-09-11T07:23:37.280Z,86.40
2017-09-11T07:24:37.262Z,86.30
2017-09-11T07:25:37.251Z,86.21
2017-09-11T07:26:37.238Z,85.93
2017-09-11T07:27:37.224Z,85.68
2017-09-11T07:28:37.211Z,85.21
2017-09-11T07:29:37.200Z,85.21
2017-09-11T07:30:37.189Z,84.88
2017-09-11T07:31:37.173Z,85.49
2017-09-11T07:32:37.165Z,83.45
2017-09-11T07:33:37.148Z,82.50
2017-09-11T07:34:37.135Z,81.26
2017-09-11T07:35:37.123Z,82.84
2017-09-11T07:36:37.106Z,84.07
2017-09-11T07:37:37.094Z,84.92
2017-09-11T07:38:37.082Z,84.64
2017-09-11T07:39:37.069Z,83.97
2017-09-11T07:40:37.056Z,83.22
2017-09-11T07:41:37.042Z,83.69
2017-09-11T07:42:37.032Z,84.07
2017-09-11T07:43:37.016Z,84.83
2017-09-11T07:44:37.004Z,84.64
2017-09-11T07:45:36.994Z,83.78
2017-09-11T07:46:36.979Z,82.88
2017-09-11T07:47:36.968Z,82.21
2017-09-11T07:48:36.986Z,81.26
2017-09-11T07:49:36.942Z,81.65
2017-09-11T07:50:36.928Z,81.36
2017-09-11T07:51:36.917Z,82.55
2017-09-11T07:52:36.906Z,82.36
2017-09-11T07:53:36.890Z,82.84
2017-09-11T07:54:36.880Z,81.68
2017-09-11T07:55:36.868Z,79.88
2017-09-11T07:56:36.855Z,78.83
2017-09-11T07:57:36.840Z,79.41
2017-09-11T07:58:36.830Z,79.74
2017-09-11T07:59:36.817Z,79.94
2017-09-11T08:00:36.804Z,79.84
2017-09-11T08:01:36.792Z,80.88
2017-09-11T08:02:36.782Z,80.98
2017-09-11T08:03:36.768Z,79.88
2017-09-11T08:04:36.758Z,78.93
2017-09-11T08:05:36.747Z,78.70
2017-09-11T08:06:36.732Z,79.84
2017-09-11T08:07:36.723Z,81.17
2017-09-11T08:08:36.707Z,81.55
2017-09-11T08:09:36.696Z,81.45
2017-09-11T08:10:36.684Z,82.12
2017-09-11T08:11:36.675Z,80.98
2017-09-11T08:12:36.659Z,81.26
2017-09-11T08:13:36.653Z,80.22
2017-09-11T08:14:36.636Z,80.51
2017-09-11T08:15:36.624Z,81.07
2017-09-11T08:16:36.615Z,81.45
2017-09-11T08:17:36.600Z,81.36
2017-09-11T08:18:36.596Z,80.55
2017-09-11T08:19:36.577Z,79.50
2017-09-11T08:20:36.565Z,78.64
2017-09-11T08:21:36.556Z,78.11
2017-09-11T08:22:36.542Z,77.55
2017-09-11T08:23:36.532Z,76.84
2017-09-11T08:24:36.520Z,78.89
2017-09-11T08:25:36.509Z,80.13
2017-09-11T08:26:36.496Z,81.65
2017-09-11T08:27:36.485Z,81.17
2017-09-11T08:28:36.475Z,81.26
2017-09-11T08:29:36.463Z,82.07
2017-09-11T08:30:36.452Z,82.26
2017-09-11T08:31:36.441Z,80.77
2017-09-11T08:32:36.426Z,79.49
2017-09-11T08:33:36.418Z,77.97
2017-09-11T08:34:36.405Z,76.96
2017-09-11T08:35:36.394Z,76.20
2017-09-11T08:36:36.382Z,74.10
2017-09-11T08:37:36.374Z,73.10
2017-09-11T08:38:36.365Z,71.95
2017-09-11T08:39:36.352Z,71.95
2017-09-11T08:40:36.386Z,72.39
2017-09-11T08:41:36.344Z,72.71
2017-09-11T08:42:36.323Z,71.51
2017-09-11T08:43:36.313Z,70.75
2017-09-11T08:44:36.301Z,69.60
2017-09-11T08:45:36.308Z,67.99
2017-09-11T08:46:36.285Z,69.29
2017-09-11T08:47:36.274Z,69.19
2017-09-11T08:48:36.268Z,69.38
2017-09-11T08:49:36.255Z,70.39
2017-09-11T08:50:36.246Z,70.49
2017-09-11T08:51:36.235Z,70.30
2017-09-11T08:52:36.228Z,70.10
2017-09-11T08:53:36.219Z,75.26
2017-09-11T08:54:36.209Z,78.17
2017-09-11T08:55:36.197Z,81.93
2017-09-11T08:56:36.189Z,85.25
2017-09-11T08:57:36.176Z,86.87
2017-09-11T08:58:36.181Z,86.11
2017-09-11T08:59:36.159Z,85.30
2017-09-11T09:00:36.150Z,86.07
2017-09-11T09:01:36.137Z,87.35
2017-09-11T09:02:36.126Z,89.77
2017-09-11T09:03:36.516Z,92.61
2017-09-11T09:04:36.101Z,93.70
2017-09-11T09:05:36.090Z,94.84
2017-09-11T09:06:36.083Z,95.22
2017-09-11T09:07:36.067Z,97.97
2017-09-11T09:08:36.053Z,98.54
2017-09-11T09:09:36.043Z,98.35
2017-09-11T09:10:36.031Z,97.26
2017-09-11T09:11:36.017Z,96.03
2017-09-11T09:12:36.007Z,94.04
2017-09-11T09:13:35.992Z,93.13
2017-09-11T09:14:35.981Z,92.90
2017-09-11T09:15:35.967Z,94.08
2017-09-11T09:16:35.956Z,95.31
2017-09-11T09:17:35.943Z,94.46
2017-09-11T09:18:35.931Z,94.93
2017-09-11T09:19:35.916Z,94.56
2017-09-11T09:20:35.904Z,94.60
2017-09-11T09:21:35.890Z,92.90
2017-09-11T09:22:35.879Z,91.95
2017-09-11T09:23:35.865Z,91.14
2017-09-11T09:24:35.850Z,90.67
2017-09-11T09:25:35.840Z,90.00
2017-09-11T09:26:35.832Z,89.62
2017-09-11T09:27:35.814Z,87.82
2017-09-11T09:28:35.800Z,87.45
2017-09-11T09:29:35.786Z,86.63
2017-09-11T09:30:35.773Z,85.68
2017-09-11T09:31:35.761Z,85.40
2017-09-11T09:32:35.748Z,86.07
2017-09-11T09:33:35.735Z,85.78
2017-09-11T09:34:35.725Z,85.40
2017-09-11T09:35:35.715Z,85.68
2017-09-11T09:36:35.700Z,86.35
2017-09-11T09:37:35.687Z,86.54
2017-09-11T09:38:35.674Z,86.44
2017-09-11T09:39:35.664Z,85.87
2017-09-11T09:40:35.651Z,85.49
2017-09-11T09:41:35.638Z,85.21
2017-09-11T09:42:35.627Z,86.16
2017-09-11T09:43:35.615Z,86.40
2017-09-11T09:44:35.605Z,86.30
2017-09-11T09:45:35.588Z,86.11
2017-09-11T09:46:35.576Z,86.30
2017-09-11T09:47:35.568Z,87.25
2017-09-11T09:48:35.554Z,86.40
2017-09-11T09:49:35.539Z,84.69
2017-09-11T09:50:35.527Z,84.84
2017-09-11T09:51:35.517Z,86.83
2017-09-11T09:52:35.503Z,87.40
2017-09-11T09:53:35.495Z,86.22
2017-09-11T09:54:35.481Z,87.92
2017-09-11T09:55:35.465Z,90.34
2017-09-11T09:56:35.452Z,91.10
2017-09-11T09:57:35.439Z,87.69
2017-09-11T09:58:35.426Z,87.84
2017-09-11T09:59:35.412Z,88.31
2017-09-11T10:00:35.399Z,91.76
2017-09-11T10:01:35.384Z,87.65
2017-09-11T10:02:35.393Z,88.54
2017-09-11T10:03:35.357Z,87.98
2017-09-11T10:04:35.342Z,86.18
2017-09-11T10:05:35.328Z,89.01
2017-09-11T10:06:35.312Z,89.72
2017-09-11T10:07:35.300Z,85.04
2017-09-11T10:08:35.284Z,85.13
2017-09-11T10:09:35.269Z,85.99
2017-09-11T10:10:35.255Z,86.36
2017-09-11T10:11:35.240Z,85.00
2017-09-11T10:12:35.223Z,84.05
2017-09-11T10:13:35.208Z,84.05
2017-09-11T10:14:35.296Z,83.48
2017-09-11T10:15:35.178Z,85.28
2017-09-11T10:16:35.164Z,84.90
2017-09-11T10:17:35.150Z,85.66
2017-09-11T10:18:35.134Z,87.08
2017-09-11T10:19:35.119Z,87.93
2017-09-11T10:20:35.104Z,89.44
2017-09-11T10:21:35.085Z,89.54
2017-09-11T10:22:35.072Z,90.48
2017-09-11T10:23:35.091Z,90.72
2017-09-11T10:24:35.039Z,89.06
2017-09-11T10:25:35.026Z,88.97
2017-09-11T10:26:35.011Z,88.21
2017-09-11T10:27:34.993Z,89.39
2017-09-11T10:28:34.977Z,89.39
2017-09-11T10:29:34.967Z,90.25
2017-09-11T10:30:34.947Z,88.82
2017-09-11T10:31:34.933Z,87.88
2017-09-11T10:32:34.916Z,88.35
2017-09-11T10:33:34.903Z,88.54
2017-09-11T10:34:34.888Z,88.26
2017-09-11T10:35:34.875Z,87.73
2017-09-11T10:36:34.855Z,86.36
2017-09-11T10:37:34.840Z,86.46
2017-09-11T10:38:34.825Z,86.27
2017-09-11T10:39:34.812Z,87.88
2017-09-11T10:40:34.800Z,87.69
2017-09-11T10:41:34.780Z,88.07
2017-09-11T10:42:34.768Z,87.78
2017-09-11T10:43:34.753Z,87.98
2017-09-11T10:44:34.735Z,87.88
2017-09-11T10:45:34.721Z,89.30
2017-09-11T10:46:34.707Z,89.49
2017-09-11T10:47:34.692Z,88.64
2017-09-11T10:48:34.701Z,87.40
2017-09-11T10:49:34.659Z,87.59
2017-09-11T10:50:34.645Z,87.40
2017-09-11T10:51:34.635Z,88.64
2017-09-11T10:52:34.615Z,89.77
2017-09-11T10:53:34.600Z,90.77
2017-09-11T10:54:34.584Z,89.25
2017-09-11T10:55:34.573Z,91.24
2017-09-11T10:56:34.557Z,91.81
2017-09-11T10:57:34.542Z,90.20
2017-09-11T10:58:34.526Z,91.76
2017-09-11T10:59:34.514Z,91.76
2017-09-11T11:00:34.499Z,89.58
2017-09-11T11:01:34.483Z,87.45
2017-09-11T11:02:34.469Z,86.78
2017-09-11T11:03:34.455Z,87.45
2017-09-11T11:04:34.440Z,88.20
2017-09-11T11:05:34.427Z,84.50
2017-09-11T11:06:34.415Z,84.31
2017-09-11T11:07:34.402Z,85.93
2017-09-11T11:08:34.390Z,87.73
2017-09-11T11:09:34.378Z,87.63
2017-09-11T11:10:34.362Z,87.73
2017-09-11T11:11:34.351Z,87.58
2017-09-11T11:12:34.337Z,86.72
2017-09-11T11:13:34.323Z,84.40
2017-09-11T11:14:34.314Z,83.20
2017-09-11T11:15:34.300Z,81.16
2017-09-11T11:16:34.289Z,77.77
2017-09-11T11:17:34.275Z,75.15
2017-09-11T11:18:34.263Z,72.33
2017-09-11T11:19:34.255Z,70.62
2017-09-11T11:20:34.242Z,69.10
2017-09-11T11:21:34.232Z,69.38
2017-09-11T11:22:34.218Z,69.82
2017-09-11T11:23:34.208Z,72.99
2017-09-11T11:24:34.198Z,76.21
2017-09-11T11:25:34.188Z,76.97
2017-09-11T11:26:34.176Z,77.45
2017-09-11T11:27:34.168Z,77.64
2017-09-11T11:28:34.153Z,77.45
2017-09-11T11:29:34.147Z,77.83
2017-09-11T11:30:34.131Z,77.83
2017-09-11T11:31:34.123Z,77.05
2017-09-11T11:32:34.111Z,75.38
2017-09-11T11:33:34.098Z,70.50
2017-09-11T11:34:34.091Z,67.29
2017-09-11T11:35:34.080Z,66.27
2017-09-11T11:36:34.071Z,68.21
2017-09-11T11:37:34.061Z,71.06
2017-09-11T11:38:34.050Z,72.77
2017-09-11T11:39:34.039Z,72.67
2017-09-11T11:40:34.029Z,72.90
2017-09-11T11:41:34.020Z,70.81
2017-09-11T11:42:34.010Z,70.72
2017-09-11T11:43:33.999Z,70.81
2017-09-11T11:44:33.992Z,70.77
2017-09-11T11:45:33.980Z,71.72
2017-09-11T11:46:33.973Z,71.53
2017-09-11T11:47:33.962Z,70.68
2017-09-11T11:48:33.952Z,69.76
2017-09-11T11:49:33.939Z,70.05
2017-09-11T11:50:33.933Z,69.10
2017-09-11T11:51:33.923Z,69.57
2017-09-11T11:52:33.913Z,69.67
2017-09-11T11:53:33.899Z,69.76
2017-09-11T11:54:33.890Z,71.44
2017-09-11T11:55:33.880Z,75.91
2017-09-11T11:56:33.872Z,77.53
2017-09-11T11:57:33.861Z,77.87
2017-09-11T11:58:33.848Z,77.49
2017-09-11T11:59:33.841Z,78.25
2017-09-11T12:00:33.829Z,78.25
2017-09-11T12:01:33.816Z,79.35
2017-09-11T12:02:33.806Z,80.49
2017-09-11T12:03:33.795Z,80.68
2017-09-11T12:04:33.787Z,82.39
2017-09-11T12:05:33.784Z,82.68
2017-09-11T12:06:33.762Z,80.77
2017-09-11T12:07:33.753Z,79.39
2017-09-11T12:08:33.741Z,78.72
2017-09-11T12:09:33.732Z,78.82
2017-09-11T12:10:33.718Z,78.34
2017-09-11T12:11:33.709Z,77.62
2017-09-11T12:12:33.695Z,76.48
2017-09-11T12:13:33.685Z,75.53
2017-09-11T12:14:33.674Z,74.58
2017-09-11T12:15:33.664Z,74.96
2017-09-11T12:16:33.653Z,74.58
2017-09-11T12:17:33.645Z,75.19
2017-09-11T12:18:33.633Z,74.96
2017-09-11T12:19:33.627Z,76.06
2017-09-11T12:20:33.614Z,78.34
2017-09-11T12:21:33.603Z,81.87
2017-09-11T12:22:33.590Z,84.44
2017-09-11T12:23:33.579Z,87.05
2017-09-11T12:24:33.575Z,87.53
2017-09-11T12:25:33.558Z,88.10
2017-09-11T12:26:33.544Z,88.62
2017-09-11T12:27:33.533Z,88.05
2017-09-11T12:28:33.523Z,88.34
2017-09-11T12:29:33.513Z,87.53
2017-09-11T12:30:33.499Z,87.82
2017-09-11T12:31:33.487Z,88.20
2017-09-11T12:32:33.478Z,88.95
2017-09-11T12:33:33.464Z,89.38
2017-09-11T12:34:33.452Z,87.76
2017-09-11T12:35:33.444Z,87.19
2017-09-11T12:36:33.429Z,86.67
2017-09-11T12:37:33.421Z,85.34
2017-09-11T12:38:33.410Z,84.25
2017-09-11T12:39:33.397Z,85.91
2017-09-11T12:40:33.388Z,87.82
2017-09-11T12:41:33.374Z,88.71
2017-09-11T12:42:33.362Z,88.81
2017-09-11T12:43:33.349Z,88.15
2017-09-11T12:44:33.338Z,87.86
2017-09-11T12:45:33.329Z,86.58
2017-09-11T12:46:33.317Z,88.86
2017-09-11T12:47:33.308Z,89.05
2017-09-11T12:48:33.291Z,88.76
2017-09-11T12:49:33.281Z,88.62
2017-09-11T12:50:33.269Z,89.86
2017-09-11T12:51:33.257Z,91.09
2017-09-11T12:52:33.246Z,91.85